الصفحة الرئيسية
METAR-TAF:

METAR-TAF

مطار :

كراكاس, فنزويلا

دائرة عرض: 10-36N, خط طول: 066-59W, ارتفاع: 43 متر

مراقبة الطقس الحالي

تاريخ ووقت الإصدار 52 دقيقة قبل الساعة 16:00UTC
ريح 5 عقدة من الشمال الشرقي
درجة الحرارة 28°درجة مئوية
الرطوبة 74%
ضغط 1013 hPa
الرؤية 10 كم أو أكثر
غيوم قليلة على ارتفاع 1600 قدم

METAR: SVMI 211600Z 05005KT 9999 FEW016 28/23 Q1013

زمن: 12:52 (16:52 UTC)

توقعات

تاريخ ووقت الإصدار 52 دقيقة قبل الساعة 16:00UTC
التوقعات صالحة من21 الساعة 12 UTC إلى 22 الساعة 12 UTC
ريح 6 عقدة من الشرق/الشمال الشرقي
الرؤية 10 كم أو أكثر
غيوم قليلة على ارتفاع 1600 قدم
أصبح
من 21 الساعة 12 UTC إلى 21 الساعة 16 UTC
ريح 6 عقدة من الشمال الشرقي
الرؤية: 9000 متر
غيوم متفرقة على ارتفاع 1600 قدم
غيوم متفرقة على ارتفاع 9000 قدم
رذاذ

TAF: SVMI 211600Z 2112/2212 07006KT 9999 FEW016 TX31/18Z TN25/08Z BECMG 2112/2116 05006KT 9000 DZ SCT016 SCT090

أرصاد الطقس والتوقعات من أكثر من 4000 مطار (تقارير الطقس للمطار METAR والتنبؤ بالطقس بالمطارTAF).

المحطات المتاحة هي النقط الصفراء والحمراء على الخريطة.

حرك المؤشر فوق النقطة لمعرفة اسم المحطة.

ثم انقر لمعرفة أرصاد وتوقعات الطقس.

لتغيير الخارطة: اضغط على الأزرار الخضراء مع رمز الصليب الأسود للتكبير. على الزر الأخضر مع شرطة للتصغير، أو على الأسهم الخضراء للخرائط المجاورة.


METAR-TAF: